x

Galveston,tx - 22 Nm East Of Galveston, Tx (42035) Wave Buoy

9:50pm - Wed 22nd Oct 2014 All times are CDT. -5 hours from GMT.

  • Sig Wave height 2.6ft
  • Swell Direction
  • Peak Period 6s
  • Average Period 5s
  • Wind
    7mph, 9mph gusts
  • Sea Temp 78°f
  • Air Temp 75°f
  • Sea Pressure 1018.1mb
  • Galveston,tx -  22 Nm East Of Galveston, Tx
  • Galveston,tx -  22 Nm East Of Galveston, Tx

More Historic Weather Station data

Upgrade to MSW Pro to gain access to the past 30 days of data for over 8000 Wavebouys and Weather Stations around the globe.

Join Pro

Comparision Forecast

View Surf forecast
   
Wed 10/22 9:50pm 2.5ft 6s 5s 7 9 mph 1018.1mb 78f 75f
8:50pm 2.5ft 6s 5s 7 9 mph 1017.7mb 78f 75f
7:50pm 2.5ft 6s 4s 7 9 mph 1017.1mb 78f 75f
6:50pm 3ft 6s 4s 11 13 mph 1016.7mb 77f 75f
5:50pm 3ft 6s 4s 11 13 mph 1016.4mb 78f 75f
4:50pm 3.5ft 5s 4s 13 16 mph 1016.5mb 78f 75f
3:50pm 3.5ft 5s 4s 13 18 mph 1016.8mb 78f 74f
2:50pm 3.5ft 6s 4s 16 18 mph 1017mb 78f 74f
1:50pm 3.5ft 5s 4s 13 18 mph 1017.6mb 78f 74f
12:50pm 3.5ft 6s 4s 13 18 mph 1018.3mb 78f 74f
11:50am 3.5ft 6s 4s 16 18 mph 1018.7mb 78f 74f
10:50am 3.5ft 6s 4s 16 20 mph 1018.3mb 77f 75f
9:50am 3.5ft 6s 4s 16 20 mph 1018mb 77f 74f
8:50am 4ft 5s 4s 18 20 mph 1017.6mb 77f 74f
7:50am 3.5ft 6s 4s 18 20 mph 1016.8mb 77f 75f
6:50am 3.5ft 7s 4s 20 22 mph 1016.3mb 78f 75f
5:50am 3.5ft 7s 4s 18 22 mph 1015.8mb 78f 75f
4:50am 3.5ft 6s 4s 18 22 mph 1015.3mb 78f 76f
3:50am 3ft 7s 4s 16 18 mph 1015.4mb 78f 76f
2:50am 3.5ft 7s 4s 16 18 mph 1015.8mb 78f 76f
1:50am 3.5ft 6s 4s 16 18 mph 1015.9mb 78f 77f
12:50am 3.5ft 6s 4s 16 18 mph 1015.9mb 78f 77f
Tue 10/21 11:50pm 3ft 6s 4s 16 18 mph 1016.2mb 78f 77f
10:50pm 3ft 6s 4s 16 18 mph 1016.3mb 78f 77f
9:50pm 3ft 6s 4s 13 16 mph 1016.2mb 78f 77f
8:50pm 3ft 6s 4s 13
mph
1015.7mb 78f 77f
7:50pm 3.5ft 6s 4s 13 16 mph 1015.1mb 78f 77f
6:50pm 3.5ft 5s 4s 13 16 mph 1014.7mb 78f 76f
5:50pm 3.5ft 6s 4s 16 18 mph 1014.5mb 78f 76f
4:50pm 3.5ft 5s 4s 18 20 mph 1014.6mb 78f 75f
3:50pm 3.5ft 5s 4s 18 22 mph 1014.8mb 78f 74f
2:50pm 3.5ft 5s 4s 18 20 mph 1015.1mb 78f 74f
1:50pm 3.5ft 4s 4s 18 20 mph 1015.6mb 78f 74f
12:50pm 3ft 5s 4s 16 20 mph 1016.5mb 78f 74f
11:50am 3ft 5s 4s 13 18 mph 1017.2mb 78f 74f
10:50am 3ft 4s 4s 16 20 mph 1017.2mb 78f 74f
9:50am 3ft 4s 4s 13 18 mph 1017mb 78f 74f
8:50am 3ft 5s 4s 16 18 mph 1016.6mb 78f 74f
7:50am 3ft 4s 4s 16 18 mph 1016mb 78f 74f
6:50am 2.5ft 4s 4s 16 20 mph 1015.5mb 78f 74f
5:50am 2.5ft 4s 4s 16 18 mph 1015.3mb 78f 74f
4:50am 2.5ft 5s 4s 13 18 mph 1015mb 78f 74f
3:50am 2.5ft 6s 4s 16 18 mph 1014.9mb 78f 75f
2:50am 2.5ft 5s 4s 13 16 mph 1015mb 78f 75f
1:50am 2.5ft 4s 4s 13 16 mph 1015.2mb 78f 75f
12:50am 2.5ft 6s 4s 13 18 mph 1015mb 78f 76f
Mon 10/20 11:50pm 2.5ft 5s 4s 16 18 mph 1015.6mb 78f 76f
10:50pm 2.5ft 6s 4s 16 18 mph 1015.7mb 78f 76f
9:50pm 2.5ft 6s 4s 16 18 mph 1015.7mb 78f 77f
8:50pm 2.5ft 5s 4s 11 16 mph 1015.3mb 78f 76f
7:50pm 2.5ft 6s 4s 11 13 mph 1015.2mb 78f 76f
6:50pm 2.5ft 6s 4s 9 13 mph 1015.1mb 79f 75f
5:50pm 2.5ft 6s 4s 11 13 mph 1014.9mb 79f 75f
4:50pm 2.5ft 6s 4s 13 16 mph 1014.8mb 79f 75f
3:50pm 2.5ft 6s 4s 11 16 mph 1015.1mb 79f 75f
2:50pm 3ft 5s 4s 11 13 mph 1015.7mb 79f 74f
1:50pm 2.5ft 5s 4s 13 16 mph 1016mb 79f 74f
12:50pm 3ft 5s 4s 13 18 mph 1016.6mb 79f 74f
11:50am 2.5ft 5s 4s 16 18 mph 1017.1mb 80f 75f
10:50am 2.5ft 5s 4s 16 18 mph 1017.1mb 80f 75f
9:50am 2.5ft 5s 4s 11 16 mph 1017mb 80f 76f
8:50am 2.5ft 5s 4s 11 13 mph 1016.2mb 80f 76f
7:50am 2.5ft 5s 4s 13 18 mph 1015.5mb 80f 75f
6:50am 2.5ft 4s 4s 13 16 mph 1015.2mb 80f 75f
5:50am 2.5ft 4s 4s 13 16 mph 1014.9mb 80f 74f
4:50am 2.5ft 5s 4s 13 16 mph 1014.7mb 80f 75f
3:50am 2.5ft 4s 4s 16 18 mph 1015.1mb 80f 74f
2:50am 2.5ft 4s 4s 16 18 mph 1015.8mb 80f 75f
1:50am 2.5ft 4s 4s 16 20 mph 1015.9mb 80f 75f
12:50am 2.5ft 5s 4s 16 18 mph 1016.2mb 80f 75f
Sun 10/19 11:50pm 2.5ft 5s  -  16 18 mph 1016.4mb 80f 75f
10:50pm 2.5ft 5s 4s 16 18 mph 1016.7mb 80f 76f
9:50pm 2.5ft 5s 4s 16 20 mph 1016.4mb 80f 76f
8:50pm 2.5ft 5s 4s 16 20 mph 1016.3mb 80f 76f
7:50pm 2.5ft 5s 4s 16 18 mph 1016.4mb 80f 75f
6:50pm 2.5ft 5s 4s 13 18 mph 1016.3mb 80f 74f
5:50pm 2.5ft 5s 4s 11 13 mph 1016.4mb 80f 74f
4:50pm 2.5ft 5s 4s 13 18 mph 1016.4mb 80f 73f
3:50pm 3ft 5s 4s 13 16 mph 1016.6mb 80f 73f
2:50pm 3ft 5s 4s 13 16 mph 1016.8mb 80f 73f
1:50pm 3ft 5s 4s 13 16 mph 1017.7mb 80f 73f
12:50pm 3.5ft 5s 4s 16 20 mph 1018.1mb 80f 73f
11:50am 3.5ft 5s 4s 16 20 mph 1018.4mb 80f 73f
10:50am 3.5ft 5s 4s 16 20 mph 1018.2mb 80f 73f
9:50am 3.5ft 5s 4s 18 20 mph 1018mb 80f 73f
8:50am 3ft 5s 4s 18 20 mph 1017.6mb 80f 73f
7:50am 3ft 4s 4s 18 20 mph 1017mb 80f 73f
6:50am 2.5ft 4s 4s 18 22 mph 1016.6mb 80f 74f
5:50am 2.5ft 4s 3s 18 22 mph 1016.3mb 80f 75f
4:50am 1.3ft 3s 3s 18 20 mph 1016.1mb 80f 75f